createdAt,value
2023-05-13T00:00:55.237Z,10.15
2023-05-13T00:03:57.469Z,9.23
2023-05-13T00:06:59.789Z,8.77
2023-05-13T00:10:02.239Z,9.65
2023-05-13T00:13:04.539Z,10.00
2023-05-13T00:16:07.010Z,5.68
2023-05-13T00:19:09.419Z,9.68
2023-05-13T00:22:12.153Z,8.38
2023-05-13T00:25:14.536Z,10.77
2023-05-13T00:28:17.032Z,11.00
2023-05-13T00:31:19.465Z,9.18
2023-05-13T00:34:21.761Z,8.93
2023-05-13T00:37:24.132Z,10.98
2023-05-13T00:40:26.397Z,10.73
2023-05-13T00:43:29.048Z,11.13
2023-05-13T00:46:35.444Z,11.00
2023-05-13T00:49:37.979Z,11.18
2023-05-13T00:52:42.042Z,12.10
2023-05-13T00:55:46.038Z,11.65
2023-05-13T00:58:50.431Z,9.87
2023-05-13T01:02:16.802Z,10.55
2023-05-13T01:05:29.826Z,10.45
2023-05-13T01:09:01.651Z,10.88
2023-05-13T01:12:09.278Z,10.52
2023-05-13T01:15:16.314Z,11.93
2023-05-13T01:18:24.272Z,11.85
2023-05-13T01:21:27.782Z,12.82
2023-05-13T01:24:30.268Z,11.27
2023-05-13T01:27:32.878Z,12.52
2023-05-13T01:30:37.684Z,10.17
2023-05-13T01:33:43.133Z,11.43
2023-05-13T01:36:46.485Z,12.98
2023-05-13T01:39:50.419Z,12.60
2023-05-13T01:42:53.394Z,11.27
2023-05-13T01:45:56.313Z,10.97
2023-05-13T01:48:59.138Z,10.80
2023-05-13T01:52:01.609Z,11.45
2023-05-13T01:55:04.602Z,11.80
2023-05-13T01:58:07.386Z,10.93
2023-05-13T02:01:09.815Z,10.73
2023-05-13T02:04:12.435Z,11.32
2023-05-13T02:07:16.509Z,10.80
2023-05-13T02:10:20.514Z,10.52
2023-05-13T02:13:23.222Z,12.05
2023-05-13T02:16:25.668Z,12.13
2023-05-13T02:19:28.078Z,10.85
2023-05-13T02:22:30.412Z,12.85
2023-05-13T02:25:32.708Z,9.48
2023-05-13T02:28:35.044Z,10.90
2023-05-13T02:31:37.286Z,10.30
2023-05-13T02:34:39.589Z,9.35
2023-05-13T02:37:41.838Z,9.95
2023-05-13T02:40:45.893Z,9.73
2023-05-13T02:43:48.373Z,11.63
2023-05-13T02:46:51.439Z,9.73
2023-05-13T02:49:56.623Z,10.77
2023-05-13T02:52:59.032Z,10.50
2023-05-13T02:56:01.330Z,10.60
2023-05-13T02:59:03.634Z,11.48
2023-05-13T03:02:06.102Z,9.40
2023-05-13T03:05:08.910Z,11.77
2023-05-13T03:08:11.426Z,10.23
2023-05-13T03:11:13.695Z,8.45
2023-05-13T03:14:16.152Z,8.13
2023-05-13T03:17:18.595Z,10.37
2023-05-13T03:20:21.122Z,8.98
2023-05-13T03:23:23.593Z,10.30
2023-05-13T03:26:28.390Z,8.15
2023-05-13T03:29:31.365Z,9.13
2023-05-13T03:32:35.067Z,11.10
2023-05-13T03:35:38.717Z,13.10
2023-05-13T03:38:41.290Z,9.02
2023-05-13T03:41:44.398Z,10.30
2023-05-13T03:44:47.655Z,12.57
2023-05-13T03:47:50.119Z,9.23
2023-05-13T03:50:54.052Z,9.48
2023-05-13T03:53:56.990Z,9.95
2023-05-13T03:56:59.860Z,10.95
2023-05-13T04:00:02.124Z,11.32
2023-05-13T04:03:04.701Z,13.00
2023-05-13T04:06:07.297Z,12.13
2023-05-13T04:09:09.562Z,10.13
2023-05-13T04:12:12.621Z,10.02
2023-05-13T04:15:14.969Z,8.23
2023-05-13T04:18:17.248Z,11.50
2023-05-13T04:21:19.558Z,9.18
2023-05-13T04:24:24.112Z,10.68
2023-05-13T04:27:26.655Z,11.02
2023-05-13T04:30:36.564Z,8.50
2023-05-13T04:33:39.239Z,8.67
2023-05-13T04:36:42.624Z,8.93
2023-05-13T04:39:46.801Z,10.27
2023-05-13T04:42:54.859Z,11.45
2023-05-13T04:46:05.163Z,10.70
2023-05-13T04:49:07.942Z,11.53
2023-05-13T04:52:13.008Z,12.02
2023-05-13T04:55:15.481Z,11.43
2023-05-13T04:58:17.975Z,12.32
2023-05-13T05:01:20.988Z,14.35
2023-05-13T05:04:25.962Z,11.60
2023-05-13T05:07:29.223Z,11.63
2023-05-13T05:10:31.632Z,11.68
2023-05-13T05:13:36.155Z,11.15
2023-05-13T05:16:38.433Z,12.60
2023-05-13T05:19:40.902Z,13.30
2023-05-13T05:22:44.156Z,8.75
2023-05-13T05:25:49.832Z,8.93
2023-05-13T05:28:56.001Z,7.50
2023-05-13T05:31:58.287Z,9.95
2023-05-13T05:35:02.321Z,10.40
2023-05-13T05:38:05.202Z,7.32
2023-05-13T05:41:07.889Z,7.18
2023-05-13T05:44:13.646Z,9.50
2023-05-13T05:47:16.706Z,8.98
2023-05-13T05:50:19.042Z,7.27
2023-05-13T05:53:24.768Z,7.30
2023-05-13T05:56:27.298Z,7.20
2023-05-13T05:59:29.602Z,8.85
2023-05-13T06:02:32.150Z,7.95
2023-05-13T06:05:35.470Z,8.13
2023-05-13T06:08:37.949Z,13.52
2023-05-13T06:11:40.392Z,9.25
2023-05-13T06:14:42.732Z,7.78
2023-05-13T06:17:45.380Z,9.77
2023-05-13T06:20:47.719Z,8.67
2023-05-13T06:23:50.082Z,9.23
2023-05-13T06:26:52.431Z,8.30
2023-05-13T06:29:54.701Z,9.80
2023-05-13T06:33:01.556Z,8.93
2023-05-13T06:36:05.756Z,10.87
2023-05-13T06:39:08.157Z,7.55
2023-05-13T06:42:14.142Z,10.07
2023-05-13T06:45:23.378Z,10.50
2023-05-13T06:48:26.006Z,13.15
2023-05-13T06:51:28.748Z,8.00
2023-05-13T06:54:31.101Z,10.98
2023-05-13T06:57:41.706Z,9.20
2023-05-13T07:00:47.033Z,10.85
2023-05-13T07:03:49.382Z,7.32
2023-05-13T07:06:51.819Z,10.83
2023-05-13T07:09:54.133Z,11.55
2023-05-13T07:12:56.549Z,9.77
2023-05-13T07:15:58.987Z,9.50
2023-05-13T07:19:01.301Z,9.38
2023-05-13T07:22:03.645Z,9.63
2023-05-13T07:25:06.406Z,9.60
2023-05-13T07:28:08.620Z,8.43
2023-05-13T07:31:11.029Z,10.68
2023-05-13T07:34:13.483Z,8.38
2023-05-13T07:37:15.710Z,8.20
2023-05-13T07:40:18.672Z,6.47
2023-05-13T07:43:23.935Z,8.90
2023-05-13T07:46:26.490Z,8.52
2023-05-13T07:49:28.793Z,6.85
2023-05-13T07:52:32.276Z,8.37
2023-05-13T07:55:35.645Z,8.02
2023-05-13T07:58:37.989Z,8.73
2023-05-13T08:01:40.475Z,8.93
2023-05-13T08:04:42.752Z,9.00
2023-05-13T08:07:45.103Z,9.73
2023-05-13T08:10:47.436Z,8.90
2023-05-13T08:13:49.737Z,9.23
2023-05-13T08:16:52.075Z,11.15
2023-05-13T08:19:54.385Z,8.65
2023-05-13T08:22:58.279Z,9.43
2023-05-13T08:26:00.559Z,9.82
2023-05-13T08:29:02.890Z,8.98
2023-05-13T08:32:05.589Z,9.65
2023-05-13T08:35:08.221Z,8.77
2023-05-13T08:38:13.513Z,9.07
2023-05-13T08:41:16.461Z,8.02
2023-05-13T08:44:20.753Z,13.32
2023-05-13T08:47:55.773Z,9.57
2023-05-13T08:50:58.537Z,8.88
2023-05-13T08:54:01.514Z,10.97
2023-05-13T08:57:04.052Z,9.25
2023-05-13T09:00:07.060Z,9.88
2023-05-13T09:03:09.438Z,10.65
2023-05-13T09:06:12.197Z,10.55
2023-05-13T09:09:14.731Z,7.50
2023-05-13T09:12:45.360Z,11.13
2023-05-13T09:15:48.160Z,8.60
2023-05-13T09:18:55.601Z,10.75
2023-05-13T09:21:58.017Z,10.52
2023-05-13T09:25:00.330Z,6.77
2023-05-13T09:28:04.508Z,9.77
2023-05-13T09:31:06.902Z,11.13
2023-05-13T09:34:09.230Z,7.10
2023-05-13T09:37:18.881Z,10.02
2023-05-13T09:40:21.486Z,8.83
2023-05-13T09:43:31.254Z,6.55
2023-05-13T09:46:34.456Z,7.38
2023-05-13T09:49:37.429Z,7.18
2023-05-13T09:52:39.871Z,7.00
2023-05-13T09:55:49.813Z,7.77
2023-05-13T09:58:53.042Z,7.78
2023-05-13T10:01:56.068Z,8.48
2023-05-13T10:04:59.087Z,7.68
2023-05-13T10:08:02.863Z,5.68
2023-05-13T10:11:07.064Z,7.10
2023-05-13T10:14:09.535Z,6.40
2023-05-13T10:17:12.488Z,8.98
2023-05-13T10:20:15.201Z,9.52
2023-05-13T10:23:17.705Z,8.98
2023-05-13T10:26:23.900Z,6.53
2023-05-13T10:29:26.785Z,10.25
2023-05-13T10:32:30.275Z,8.27
2023-05-13T10:35:38.165Z,7.18
2023-05-13T10:39:08.119Z,6.13
2023-05-13T10:42:25.600Z,4.53
2023-05-13T10:45:28.283Z,7.43
2023-05-13T10:48:43.293Z,5.97
2023-05-13T10:51:48.414Z,6.63
2023-05-13T10:55:02.665Z,8.10
2023-05-13T10:58:09.888Z,7.93
2023-05-13T11:01:25.554Z,8.68
2023-05-13T11:04:27.990Z,7.25
2023-05-13T11:07:30.777Z,7.15
2023-05-13T11:10:33.228Z,6.45
2023-05-13T11:13:38.019Z,9.87
2023-05-13T11:17:06.506Z,6.45
2023-05-13T11:20:09.343Z,6.32
2023-05-13T11:23:17.596Z,6.90
2023-05-13T11:26:21.445Z,7.60
2023-05-13T11:29:37.489Z,5.60
2023-05-13T11:32:56.041Z,8.05
2023-05-13T11:35:58.799Z,7.40
2023-05-13T11:39:07.082Z,9.35
2023-05-13T11:42:11.101Z,9.50
2023-05-13T11:45:13.800Z,7.83
2023-05-13T11:48:23.767Z,7.45
2023-05-13T11:51:26.211Z,7.68
2023-05-13T11:54:28.858Z,6.18
2023-05-13T11:57:32.974Z,8.40
2023-05-13T12:00:35.417Z,8.43
2023-05-13T12:03:37.881Z,9.45
2023-05-13T12:06:48.263Z,11.55
2023-05-13T12:09:51.751Z,8.20
2023-05-13T12:12:54.583Z,6.75
2023-05-13T12:15:57.050Z,9.70
2023-05-13T12:19:00.954Z,6.38
2023-05-13T12:22:05.459Z,7.97
2023-05-13T12:25:36.450Z,8.00
2023-05-13T12:28:38.988Z,6.53
2023-05-13T12:32:03.707Z,12.40
2023-05-13T12:35:13.120Z,6.40
2023-05-13T12:38:24.612Z,7.32
2023-05-13T12:41:32.805Z,6.63
2023-05-13T12:44:35.174Z,6.53
2023-05-13T12:47:55.895Z,6.57
2023-05-13T12:51:00.060Z,5.50
2023-05-13T12:54:03.708Z,9.73
2023-05-13T12:57:10.117Z,6.15
2023-05-13T13:00:12.980Z,6.78
2023-05-13T13:03:15.361Z,6.63
2023-05-13T13:06:18.153Z,6.90
2023-05-13T13:09:20.424Z,6.47
2023-05-13T13:12:22.747Z,6.00
2023-05-13T13:15:25.100Z,6.22
2023-05-13T13:18:27.481Z,6.83
2023-05-13T13:21:29.810Z,6.38
2023-05-13T13:24:32.159Z,7.70
2023-05-13T13:27:35.131Z,7.63
2023-05-13T13:30:38.025Z,6.03
2023-05-13T13:33:40.305Z,6.00
2023-05-13T13:36:42.538Z,6.03
2023-05-13T13:39:44.948Z,6.68
2023-05-13T13:42:47.188Z,5.55
2023-05-13T13:45:49.733Z,5.85
2023-05-13T13:48:52.105Z,6.67
2023-05-13T13:51:54.863Z,8.73
2023-05-13T13:54:57.191Z,8.23
2023-05-13T13:57:59.414Z,6.32
2023-05-13T14:01:01.701Z,7.47
2023-05-13T14:04:20.377Z,6.67
2023-05-13T14:07:22.910Z,6.97
2023-05-13T14:10:28.053Z,6.60
2023-05-13T14:13:30.244Z,7.47
2023-05-13T14:16:32.835Z,6.20
2023-05-13T14:19:35.128Z,5.30
2023-05-13T14:22:37.585Z,7.20
2023-05-13T14:25:39.986Z,7.43
2023-05-13T14:28:45.685Z,5.80
2023-05-13T14:31:48.899Z,6.82
2023-05-13T14:34:51.289Z,7.33
2023-05-13T14:37:53.574Z,4.15
2023-05-13T14:40:56.768Z,5.75
2023-05-13T14:43:59.181Z,5.70
2023-05-13T14:47:04.246Z,6.50
2023-05-13T14:50:07.261Z,9.70
2023-05-13T14:53:09.549Z,7.32
2023-05-13T14:56:12.100Z,5.28
2023-05-13T14:59:14.676Z,6.93
2023-05-13T15:02:17.599Z,7.80
2023-05-13T15:05:20.070Z,6.77
2023-05-13T15:08:22.392Z,6.20
2023-05-13T15:11:27.215Z,5.55
2023-05-13T15:14:29.553Z,5.63
2023-05-13T15:17:31.922Z,6.25
2023-05-13T15:20:34.298Z,7.27
2023-05-13T15:23:36.954Z,5.95
2023-05-13T15:26:39.256Z,6.45
2023-05-13T15:29:41.533Z,8.80
2023-05-13T15:32:43.838Z,9.77
2023-05-13T15:35:46.177Z,8.43
2023-05-13T15:38:48.565Z,7.30
2023-05-13T15:41:50.786Z,8.32
2023-05-13T15:44:53.155Z,7.35
2023-05-13T15:47:55.619Z,6.32
2023-05-13T15:50:58.030Z,6.80
2023-05-13T15:54:00.718Z,8.18
2023-05-13T15:57:03.018Z,7.65
2023-05-13T16:00:06.166Z,8.43
2023-05-13T16:03:08.439Z,7.68
2023-05-13T16:06:10.646Z,7.43
2023-05-13T16:09:12.968Z,9.68
2023-05-13T16:12:15.294Z,6.55
2023-05-13T16:15:17.888Z,8.88
2023-05-13T16:18:20.297Z,7.80
2023-05-13T16:21:22.552Z,9.80
2023-05-13T16:24:25.021Z,7.40
2023-05-13T16:27:31.227Z,6.13
2023-05-13T16:30:33.532Z,6.82
2023-05-13T16:33:36.366Z,8.32
2023-05-13T16:36:38.748Z,7.37
2023-05-13T16:39:41.488Z,6.22
2023-05-13T16:42:43.846Z,7.15
2023-05-13T16:45:46.111Z,8.60
2023-05-13T16:48:48.396Z,7.05
2023-05-13T16:51:50.743Z,7.33
2023-05-13T16:54:58.441Z,7.15
2023-05-13T16:58:01.550Z,6.63
2023-05-13T17:01:03.851Z,13.52
2023-05-13T17:04:06.105Z,6.72
2023-05-13T17:07:10.274Z,12.03
2023-05-13T17:10:12.558Z,5.53
2023-05-13T17:13:14.882Z,5.78
2023-05-13T17:16:17.170Z,10.27
2023-05-13T17:19:19.701Z,8.10
2023-05-13T17:22:22.068Z,7.17
2023-05-13T17:25:24.697Z,7.55
2023-05-13T17:28:26.997Z,7.38
2023-05-13T17:31:29.421Z,5.97
2023-05-13T17:34:31.748Z,6.80
2023-05-13T17:37:33.995Z,6.93
2023-05-13T17:40:38.905Z,7.00
2023-05-13T17:43:41.192Z,7.72
2023-05-13T17:46:43.439Z,7.20
2023-05-13T17:49:45.732Z,9.05
2023-05-13T17:52:48.083Z,7.53
2023-05-13T17:55:50.688Z,7.35
2023-05-13T17:58:53.001Z,6.72
2023-05-13T18:01:55.562Z,9.73
2023-05-13T18:04:57.915Z,9.85
2023-05-13T18:08:00.196Z,6.47
2023-05-13T18:11:02.458Z,6.03
2023-05-13T18:14:04.807Z,6.50
2023-05-13T18:17:07.069Z,9.80
2023-05-13T18:20:09.630Z,7.53
2023-05-13T18:23:11.920Z,6.60
2023-05-13T18:26:14.250Z,8.30
2023-05-13T18:29:16.636Z,6.93
2023-05-13T18:32:18.935Z,6.10
2023-05-13T18:35:23.504Z,7.43
2023-05-13T18:38:25.952Z,6.60
2023-05-13T18:41:28.176Z,6.32
2023-05-13T18:44:30.546Z,7.65
2023-05-13T18:47:32.853Z,6.20
2023-05-13T18:50:35.270Z,9.23
2023-05-13T18:53:37.612Z,8.00
2023-05-13T18:56:39.918Z,7.25
2023-05-13T18:59:42.206Z,8.85
2023-05-13T19:02:44.656Z,6.45
2023-05-13T19:05:47.067Z,8.35
2023-05-13T19:08:49.305Z,8.27
2023-05-13T19:11:51.693Z,4.88
2023-05-13T19:14:53.929Z,6.45
2023-05-13T19:17:56.276Z,8.30
2023-05-13T19:20:58.574Z,7.13
2023-05-13T19:24:03.338Z,6.77
2023-05-13T19:27:08.524Z,8.00
2023-05-13T19:30:11.372Z,7.57
2023-05-13T19:33:13.597Z,8.23
2023-05-13T19:36:16.090Z,7.60
2023-05-13T19:39:18.414Z,6.17
2023-05-13T19:42:20.950Z,7.97
2023-05-13T19:45:23.543Z,6.47
2023-05-13T19:48:27.705Z,7.63
2023-05-13T19:51:31.779Z,7.38
2023-05-13T19:54:34.077Z,7.20
2023-05-13T19:57:37.323Z,10.00
2023-05-13T20:00:39.699Z,7.32
2023-05-13T20:03:42.204Z,6.53
2023-05-13T20:06:44.644Z,6.70
2023-05-13T20:09:46.886Z,7.43
2023-05-13T20:12:49.153Z,8.77
2023-05-13T20:15:51.829Z,8.05
2023-05-13T20:18:54.387Z,8.23
2023-05-13T20:21:56.752Z,10.73
2023-05-13T20:24:59.090Z,9.43
2023-05-13T20:28:01.876Z,8.35
2023-05-13T20:31:04.817Z,10.00
2023-05-13T20:34:07.381Z,9.20
2023-05-13T20:37:09.626Z,7.40
2023-05-13T20:40:12.344Z,10.43
2023-05-13T20:43:18.026Z,9.05
2023-05-13T20:46:20.521Z,8.20
2023-05-13T20:49:22.801Z,10.55
2023-05-13T20:52:26.601Z,8.27
2023-05-13T20:55:28.956Z,11.40
2023-05-13T20:58:31.187Z,11.35
2023-05-13T21:01:34.508Z,8.85
2023-05-13T21:04:37.088Z,8.60
2023-05-13T21:07:39.452Z,9.82
2023-05-13T21:10:41.797Z,10.73
2023-05-13T21:13:44.510Z,10.00
2023-05-13T21:16:46.871Z,9.25
2023-05-13T21:19:49.528Z,9.93
2023-05-13T21:22:51.817Z,9.45
2023-05-13T21:25:54.096Z,10.57
2023-05-13T21:28:56.348Z,10.73
2023-05-13T21:31:58.679Z,9.88
2023-05-13T21:35:01.125Z,11.55
2023-05-13T21:38:11.368Z,10.70
2023-05-13T21:41:14.907Z,13.17
2023-05-13T21:44:17.223Z,12.73
2023-05-13T21:47:19.572Z,11.27
2023-05-13T21:50:22.082Z,11.98
2023-05-13T21:53:24.404Z,12.63
2023-05-13T21:56:27.122Z,14.80
2023-05-13T21:59:29.443Z,15.15
2023-05-13T22:02:31.797Z,11.43
2023-05-13T22:05:34.171Z,13.23
2023-05-13T22:08:36.457Z,11.55
2023-05-13T22:11:38.771Z,11.30
2023-05-13T22:14:41.013Z,11.85
2023-05-13T22:17:43.460Z,12.27
2023-05-13T22:20:45.759Z,11.18
2023-05-13T22:23:48.020Z,15.43
2023-05-13T22:26:50.290Z,12.87
2023-05-13T22:29:52.602Z,12.13
2023-05-13T22:32:55.844Z,11.57
2023-05-13T22:35:58.072Z,10.93
2023-05-13T22:39:00.354Z,11.18
2023-05-13T22:42:02.590Z,12.70
2023-05-13T22:45:05.204Z,15.20
2023-05-13T22:48:08.208Z,11.90
2023-05-13T22:51:10.609Z,10.57
2023-05-13T22:54:12.921Z,13.13
2023-05-13T22:57:15.227Z,14.13
2023-05-13T23:00:17.586Z,11.75
2023-05-13T23:03:19.885Z,12.48
2023-05-13T23:06:22.117Z,12.07
2023-05-13T23:09:24.390Z,13.88
2023-05-13T23:12:26.625Z,12.83
2023-05-13T23:15:28.845Z,12.93
2023-05-13T23:18:31.208Z,13.77
2023-05-13T23:21:33.582Z,11.88
2023-05-13T23:24:35.824Z,12.38
2023-05-13T23:27:38.070Z,13.97
2023-05-13T23:30:40.759Z,12.82
2023-05-13T23:33:43.026Z,11.60
2023-05-13T23:36:45.369Z,10.63
2023-05-13T23:39:47.770Z,13.75
2023-05-13T23:42:50.003Z,13.50
2023-05-13T23:45:52.359Z,10.35
2023-05-13T23:48:54.852Z,12.77
2023-05-13T23:51:57.130Z,10.88
2023-05-13T23:55:00.644Z,11.25
2023-05-13T23:58:02.956Z,9.57
